createdAt,value
2022-11-04T00:01:50.524Z,1.17
2022-11-04T00:04:19.458Z,1.10
2022-11-04T00:06:48.054Z,1.13
2022-11-04T00:09:17.920Z,1.13
2022-11-04T00:12:03.489Z,0.70
2022-11-04T00:14:31.110Z,0.82
2022-11-04T00:17:16.780Z,0.90
2022-11-04T00:20:02.185Z,0.82
2022-11-04T00:22:50.511Z,0.43
2022-11-04T00:25:35.999Z,0.50
2022-11-04T00:28:27.493Z,0.43
2022-11-04T00:30:55.375Z,0.63
2022-11-04T00:33:27.978Z,0.32
2022-11-04T00:35:56.552Z,0.32
2022-11-04T00:38:26.014Z,0.32
2022-11-04T00:40:53.333Z,0.30
2022-11-04T00:43:20.107Z,0.25
2022-11-04T00:45:47.224Z,0.30
2022-11-04T00:48:14.131Z,0.32
2022-11-04T00:50:42.093Z,0.38
2022-11-04T00:53:09.128Z,0.22
2022-11-04T00:55:37.393Z,0.30
2022-11-04T00:58:04.064Z,0.22
2022-11-04T01:00:30.788Z,0.20
2022-11-04T01:02:57.811Z,0.30
2022-11-04T01:05:24.472Z,0.22
2022-11-04T01:07:51.137Z,0.50
2022-11-04T01:10:18.251Z,0.30
2022-11-04T01:12:46.319Z,0.32
2022-11-04T01:15:12.952Z,0.25
2022-11-04T01:17:39.640Z,0.20
2022-11-04T01:20:07.552Z,0.32
2022-11-04T01:22:34.247Z,0.32
2022-11-04T01:25:01.005Z,0.13
2022-11-04T01:27:27.907Z,0.22
2022-11-04T01:29:56.068Z,0.22
2022-11-04T01:32:22.832Z,0.22
2022-11-04T01:34:49.530Z,0.13
2022-11-04T01:37:16.386Z,0.25
2022-11-04T01:39:43.713Z,0.17
2022-11-04T01:42:13.930Z,0.30
2022-11-04T01:44:50.328Z,0.13
2022-11-04T01:47:20.347Z,0.15
2022-11-04T01:49:50.736Z,0.22
2022-11-04T01:52:21.183Z,0.25
2022-11-04T01:54:50.704Z,0.20
2022-11-04T01:59:49.821Z,0.20
2022-11-04T02:02:17.982Z,0.22
2022-11-04T02:04:45.764Z,0.22
2022-11-04T02:07:12.630Z,0.30
2022-11-04T02:09:41.308Z,0.20
2022-11-04T02:12:26.986Z,0.20
2022-11-04T02:14:55.132Z,0.25
2022-11-04T02:17:44.455Z,0.75
2022-11-04T02:20:27.799Z,0.25
2022-11-04T02:23:26.461Z,0.32
2022-11-04T02:26:31.573Z,0.13
2022-11-04T02:29:31.466Z,0.13
2022-11-04T02:32:06.535Z,0.10
2022-11-04T02:34:42.981Z,0.13
2022-11-04T02:37:16.283Z,0.13
2022-11-04T02:39:51.881Z,0.57
2022-11-04T02:42:27.444Z,0.20
2022-11-04T02:45:05.510Z,0.20
2022-11-04T02:47:36.427Z,0.20
2022-11-04T02:50:08.777Z,0.30
2022-11-04T02:52:47.236Z,0.10
2022-11-04T02:55:22.795Z,0.20
2022-11-04T02:57:54.576Z,0.17
2022-11-04T03:00:22.776Z,0.32
2022-11-04T03:02:55.493Z,0.35
2022-11-04T03:05:27.533Z,0.25
2022-11-04T03:07:58.617Z,0.63
2022-11-04T03:10:31.980Z,0.50
2022-11-04T03:13:02.767Z,0.32
2022-11-04T03:15:34.676Z,0.52
2022-11-04T03:18:08.704Z,0.22
2022-11-04T03:20:38.553Z,0.30
2022-11-04T03:23:05.539Z,0.32
2022-11-04T03:25:36.364Z,0.13
2022-11-04T03:28:14.963Z,0.13
2022-11-04T03:30:46.422Z,0.30
2022-11-04T03:33:22.119Z,0.22
2022-11-04T03:38:15.723Z,0.30
2022-11-04T03:40:42.651Z,0.20
2022-11-04T03:43:14.206Z,0.30
2022-11-04T03:45:41.990Z,0.20
2022-11-04T03:48:10.289Z,0.30
2022-11-04T03:50:42.027Z,0.32
2022-11-04T03:53:10.862Z,0.35
2022-11-04T03:55:45.949Z,0.22
2022-11-04T03:58:27.313Z,0.20
2022-11-04T04:01:04.601Z,0.13
2022-11-04T04:03:38.272Z,0.20
2022-11-04T04:06:10.978Z,0.30
2022-11-04T04:08:42.963Z,0.22
2022-11-04T04:11:18.970Z,0.15
2022-11-04T04:13:53.573Z,0.30
2022-11-04T04:16:27.216Z,0.40
2022-11-04T04:18:59.353Z,0.30
2022-11-04T04:21:30.023Z,0.52
2022-11-04T04:24:17.606Z,0.13
2022-11-04T04:27:05.694Z,0.32
2022-11-04T04:29:32.785Z,0.32
2022-11-04T04:32:00.743Z,0.45
2022-11-04T04:34:30.803Z,0.30
2022-11-04T04:37:02.082Z,0.32
2022-11-04T04:39:54.011Z,0.40
2022-11-04T04:42:59.541Z,0.32
2022-11-04T04:45:32.915Z,0.28
2022-11-04T04:47:59.673Z,0.22
2022-11-04T04:50:31.594Z,0.65
2022-11-04T04:53:00.586Z,0.47
2022-11-04T04:55:27.273Z,0.32
2022-11-04T04:57:53.948Z,0.43
2022-11-04T05:00:21.250Z,0.32
2022-11-04T05:02:48.971Z,0.40
2022-11-04T05:07:49.568Z,0.13
2022-11-04T05:10:17.417Z,0.22
2022-11-04T05:13:03.237Z,0.22
2022-11-04T05:15:31.112Z,0.30
2022-11-04T05:17:59.403Z,0.22
2022-11-04T05:20:26.680Z,0.22
2022-11-04T05:22:55.535Z,0.28
2022-11-04T05:25:22.166Z,0.10
2022-11-04T05:27:48.822Z,0.22
2022-11-04T05:30:15.775Z,0.20
2022-11-04T05:32:42.434Z,0.20
2022-11-04T05:35:09.412Z,0.32
2022-11-04T05:37:36.101Z,0.30
2022-11-04T05:40:07.492Z,0.20
2022-11-04T05:42:34.238Z,0.30
2022-11-04T05:45:00.951Z,0.13
2022-11-04T05:47:28.525Z,0.22
2022-11-04T05:49:55.258Z,0.13
2022-11-04T05:52:22.633Z,0.20
2022-11-04T05:54:49.520Z,0.13
2022-11-04T05:57:17.759Z,0.20
2022-11-04T05:59:44.474Z,0.30
2022-11-04T06:02:11.405Z,0.25
2022-11-04T06:04:38.259Z,0.50
2022-11-04T06:07:05.038Z,0.25
2022-11-04T06:09:41.328Z,0.50
2022-11-04T06:12:09.954Z,0.40
2022-11-04T06:14:38.239Z,0.22
2022-11-04T06:17:05.027Z,0.35
2022-11-04T06:19:31.904Z,0.20
2022-11-04T06:21:58.726Z,0.40
2022-11-04T06:24:25.560Z,0.22
2022-11-04T06:26:52.420Z,0.10
2022-11-04T06:29:19.118Z,0.32
2022-11-04T06:31:47.288Z,0.13
2022-11-04T06:34:13.948Z,0.28
2022-11-04T06:36:40.671Z,0.22
2022-11-04T06:39:07.709Z,0.13
2022-11-04T06:41:34.603Z,0.15
2022-11-04T06:44:01.406Z,0.10
2022-11-04T06:46:34.566Z,0.22
2022-11-04T06:49:03.271Z,0.32
2022-11-04T06:51:30.008Z,0.13
2022-11-04T06:53:56.638Z,0.10
2022-11-04T06:56:23.739Z,0.40
2022-11-04T06:58:51.339Z,0.22
2022-11-04T07:01:22.190Z,0.28
2022-11-04T07:03:50.812Z,0.13
2022-11-04T07:06:19.809Z,0.30
2022-11-04T07:08:46.914Z,0.22
2022-11-04T07:11:14.173Z,0.40
2022-11-04T07:13:41.070Z,0.22
2022-11-04T07:16:09.026Z,0.15
2022-11-04T07:18:36.460Z,0.30
2022-11-04T07:21:08.763Z,0.38
2022-11-04T07:23:38.510Z,0.20
2022-11-04T07:26:07.587Z,0.30
2022-11-04T07:28:34.452Z,0.20
2022-11-04T07:31:03.475Z,0.30
2022-11-04T07:33:30.168Z,0.22
2022-11-04T07:35:58.151Z,0.52
2022-11-04T07:38:25.493Z,1.05
2022-11-04T07:40:53.724Z,0.47
2022-11-04T07:43:20.454Z,0.50
2022-11-04T07:45:47.179Z,0.40
2022-11-04T07:48:13.914Z,0.40
2022-11-04T07:50:40.714Z,0.22
2022-11-04T07:53:08.090Z,0.30
2022-11-04T07:55:42.888Z,0.45
2022-11-04T07:58:11.536Z,0.20
2022-11-04T08:00:38.223Z,0.30
2022-11-04T08:03:04.952Z,0.20
2022-11-04T08:05:31.610Z,0.35
2022-11-04T08:07:59.078Z,0.28
2022-11-04T08:10:25.897Z,0.03
2022-11-04T08:12:53.065Z,0.50
2022-11-04T08:15:21.281Z,0.13
2022-11-04T08:17:48.291Z,0.20
2022-11-04T08:20:15.767Z,0.13
2022-11-04T08:22:42.471Z,0.50
2022-11-04T08:25:13.324Z,0.70
2022-11-04T08:27:40.266Z,0.22
2022-11-04T08:30:09.520Z,0.13
2022-11-04T08:32:37.672Z,0.20
2022-11-04T08:35:05.056Z,0.30
2022-11-04T08:37:31.778Z,0.25
2022-11-04T08:39:58.474Z,0.28
2022-11-04T08:42:26.160Z,0.30
2022-11-04T08:44:52.936Z,0.32
2022-11-04T08:47:19.966Z,0.30
2022-11-04T08:49:48.011Z,0.30
2022-11-04T08:52:14.676Z,0.32
2022-11-04T08:54:41.520Z,0.22
2022-11-04T08:57:09.233Z,0.22
2022-11-04T08:59:36.425Z,0.43
2022-11-04T09:02:03.221Z,0.25
2022-11-04T09:04:29.875Z,0.25
2022-11-04T09:06:57.905Z,0.13
2022-11-04T09:09:24.561Z,0.28
2022-11-04T09:11:51.311Z,0.20
2022-11-04T09:14:18.134Z,0.22
2022-11-04T09:16:44.855Z,0.22
2022-11-04T09:19:11.736Z,0.22
2022-11-04T09:21:38.433Z,0.20
2022-11-04T09:24:07.831Z,0.15
2022-11-04T09:29:01.782Z,0.22
2022-11-04T09:31:30.545Z,0.32
2022-11-04T09:33:57.639Z,0.22
2022-11-04T09:36:24.600Z,0.20
2022-11-04T09:38:51.797Z,0.22
2022-11-04T09:41:54.016Z,0.25
2022-11-04T09:44:27.869Z,0.13
2022-11-04T09:46:58.822Z,0.43
2022-11-04T09:49:29.818Z,0.22
2022-11-04T09:51:59.432Z,0.22
2022-11-04T09:54:32.558Z,0.20
2022-11-04T09:57:01.721Z,0.28
2022-11-04T09:59:33.080Z,0.15
2022-11-04T10:02:22.113Z,0.28
2022-11-04T10:05:02.305Z,0.13
2022-11-04T10:07:45.214Z,0.22
2022-11-04T10:10:20.651Z,0.13
2022-11-04T10:13:06.855Z,0.50
2022-11-04T10:16:03.438Z,0.30
2022-11-04T10:18:42.651Z,0.28
2022-11-04T10:21:21.686Z,0.20
2022-11-04T10:24:05.480Z,0.20
2022-11-04T10:26:39.964Z,0.30
2022-11-04T10:29:13.355Z,0.15
2022-11-04T10:31:44.964Z,0.30
2022-11-04T10:34:23.518Z,0.22
2022-11-04T10:36:51.012Z,0.25
2022-11-04T10:39:25.669Z,0.20
2022-11-04T10:41:52.764Z,0.22
2022-11-04T10:44:22.510Z,0.20
2022-11-04T10:47:02.524Z,0.30
2022-11-04T10:50:06.866Z,0.13
2022-11-04T10:52:33.696Z,0.20
2022-11-04T10:55:00.554Z,0.10
2022-11-04T10:57:28.046Z,0.22
2022-11-04T10:59:57.160Z,0.20
2022-11-04T11:02:45.709Z,0.17
2022-11-04T11:05:23.300Z,0.13
2022-11-04T11:07:52.252Z,0.20
2022-11-04T11:10:21.939Z,0.52
2022-11-04T11:12:54.255Z,0.30
2022-11-04T11:15:32.576Z,0.30
2022-11-04T11:18:18.329Z,0.10
2022-11-04T11:20:49.457Z,0.20
2022-11-04T11:23:37.566Z,0.80
2022-11-04T11:26:07.122Z,0.20
2022-11-04T11:28:38.146Z,0.32
2022-11-04T11:31:11.780Z,0.52
2022-11-04T11:33:47.120Z,0.63
2022-11-04T11:36:18.957Z,0.40
2022-11-04T11:38:59.012Z,0.43
2022-11-04T11:41:31.738Z,0.32
2022-11-04T11:44:06.102Z,0.65
2022-11-04T11:46:36.363Z,0.47
2022-11-04T11:49:05.594Z,0.32
2022-11-04T11:51:35.311Z,0.57
2022-11-04T11:54:23.160Z,0.90
2022-11-04T11:57:12.530Z,0.73
2022-11-04T12:02:46.003Z,0.50
2022-11-04T12:11:14.172Z,0.57
2022-11-04T12:13:46.249Z,0.20
2022-11-04T12:16:24.662Z,0.68
2022-11-04T12:19:17.188Z,0.52
2022-11-04T12:21:54.960Z,0.13
2022-11-04T12:24:34.197Z,0.22
2022-11-04T12:27:12.907Z,0.22
2022-11-04T12:29:51.409Z,0.32
2022-11-04T12:32:30.520Z,0.22
2022-11-04T12:35:12.212Z,0.52
2022-11-04T12:37:53.267Z,0.60
2022-11-04T12:40:22.106Z,0.35
2022-11-04T12:43:08.565Z,0.30
2022-11-04T12:45:46.433Z,0.30
2022-11-04T12:48:29.397Z,0.32
2022-11-04T12:51:05.853Z,0.25
2022-11-04T12:53:52.678Z,0.20
2022-11-04T12:56:22.239Z,0.40
2022-11-04T12:59:16.524Z,0.43
2022-11-04T13:01:48.162Z,0.32
2022-11-04T13:04:20.282Z,0.38
2022-11-04T13:06:51.591Z,0.20
2022-11-04T13:09:30.173Z,0.50
2022-11-04T13:12:05.837Z,0.40
2022-11-04T13:14:42.151Z,0.40
2022-11-04T13:17:15.513Z,0.40
2022-11-04T13:19:47.399Z,0.30
2022-11-04T13:22:19.480Z,0.32
2022-11-04T13:24:50.381Z,0.50
2022-11-04T13:27:21.389Z,0.32
2022-11-04T13:29:52.227Z,0.13
2022-11-04T13:32:27.965Z,0.25
2022-11-04T13:34:59.414Z,0.73
2022-11-04T13:37:31.083Z,0.65
2022-11-04T13:40:04.133Z,0.43
2022-11-04T13:42:54.430Z,0.40
2022-11-04T13:45:21.481Z,0.47
2022-11-04T13:47:51.061Z,0.52
2022-11-04T13:50:32.244Z,0.47
2022-11-04T13:52:59.958Z,0.50
2022-11-04T13:55:28.139Z,0.22
2022-11-04T13:57:58.199Z,0.35
2022-11-04T14:00:26.733Z,0.40
2022-11-04T14:02:54.596Z,0.40
2022-11-04T14:06:05.997Z,0.68
2022-11-04T14:08:33.424Z,0.52
2022-11-04T14:11:12.491Z,0.70
2022-11-04T14:14:03.774Z,0.40
2022-11-04T14:16:42.266Z,0.50
2022-11-04T14:19:55.789Z,0.35
2022-11-04T14:22:37.515Z,0.63
2022-11-04T14:25:22.625Z,0.60
2022-11-04T14:27:52.686Z,0.52
2022-11-04T14:30:36.790Z,0.80
2022-11-04T14:33:07.488Z,0.32
2022-11-04T14:35:35.954Z,0.73
2022-11-04T14:38:18.201Z,0.70
2022-11-04T14:40:47.822Z,0.63
2022-11-04T14:43:31.198Z,0.50
2022-11-04T14:46:00.122Z,0.45
2022-11-04T14:48:28.672Z,0.50
2022-11-04T14:50:56.979Z,0.55
2022-11-04T14:53:30.795Z,0.73
2022-11-04T14:56:15.017Z,0.60
2022-11-04T14:58:56.640Z,1.05
2022-11-04T15:01:26.524Z,1.20
2022-11-04T15:04:13.063Z,0.45
2022-11-04T15:06:54.043Z,0.73
2022-11-04T15:09:24.519Z,0.50
2022-11-04T15:12:11.364Z,0.68
2022-11-04T15:14:39.527Z,0.40
2022-11-04T15:17:06.331Z,0.52
2022-11-04T15:19:35.527Z,0.43
2022-11-04T15:22:04.566Z,0.43
2022-11-04T15:24:31.571Z,0.25
2022-11-04T15:27:03.205Z,0.32
2022-11-04T15:29:30.120Z,0.32
2022-11-04T15:32:00.523Z,0.35
2022-11-04T15:34:29.399Z,0.77
2022-11-04T15:36:58.810Z,0.70
2022-11-04T15:42:16.303Z,0.43
2022-11-04T15:44:46.446Z,0.93
2022-11-04T15:47:25.944Z,0.77
2022-11-04T15:49:54.416Z,0.93
2022-11-04T15:52:23.395Z,1.10
2022-11-04T15:54:51.931Z,1.90
2022-11-04T15:57:21.207Z,1.63
2022-11-04T15:59:52.926Z,2.22
2022-11-04T16:02:26.783Z,1.42
2022-11-04T16:05:17.085Z,1.35
2022-11-04T16:07:45.286Z,0.73
2022-11-04T16:10:30.256Z,0.60
2022-11-04T16:12:59.256Z,0.40
2022-11-04T16:15:38.944Z,0.50
2022-11-04T16:18:21.574Z,0.30
2022-11-04T16:20:50.459Z,0.35
2022-11-04T16:23:20.844Z,0.22
2022-11-04T16:25:54.252Z,0.50
2022-11-04T16:28:21.348Z,0.30
2022-11-04T16:30:56.236Z,0.40
2022-11-04T16:33:24.297Z,0.45
2022-11-04T16:35:50.995Z,0.28
2022-11-04T16:38:17.737Z,0.35
2022-11-04T16:40:47.434Z,0.40
2022-11-04T16:43:17.531Z,0.43
2022-11-04T16:45:52.398Z,0.50
2022-11-04T16:48:21.884Z,0.60
2022-11-04T16:50:49.939Z,0.43
2022-11-04T16:53:16.646Z,0.57
2022-11-04T16:55:44.535Z,0.32
2022-11-04T16:58:17.297Z,0.65
2022-11-04T17:00:44.085Z,0.82
2022-11-04T17:03:22.136Z,0.77
2022-11-04T17:05:51.238Z,1.23
2022-11-04T17:08:18.328Z,2.25
2022-11-04T17:10:45.737Z,3.40
2022-11-04T17:13:13.005Z,1.35
2022-11-04T17:15:40.920Z,1.15
2022-11-04T17:18:07.640Z,1.20
2022-11-04T17:20:34.403Z,1.75
2022-11-04T17:23:02.451Z,1.05
2022-11-04T17:25:29.797Z,1.83
2022-11-04T17:27:56.507Z,3.53
2022-11-04T17:30:23.663Z,3.47
2022-11-04T17:32:50.915Z,0.95
2022-11-04T17:35:18.183Z,1.13
2022-11-04T17:37:44.904Z,1.98
2022-11-04T17:40:16.134Z,4.18
2022-11-04T17:43:02.634Z,2.17
2022-11-04T17:45:31.889Z,1.27
2022-11-04T17:48:02.971Z,0.80
2022-11-04T17:50:30.363Z,0.82
2022-11-04T17:52:57.041Z,0.63
2022-11-04T17:55:27.708Z,0.70
2022-11-04T17:57:55.367Z,1.80
2022-11-04T18:00:25.749Z,1.05
2022-11-04T18:02:52.518Z,3.22
